CW5039 Hamilton NZ current weather conditions

sailwx.info

Wind from 262 at 8 knots gusting 10

Air temperature 20.0° C
Dewpoint 16.6° C

Last reported at 2020-Jan-26 07:59 UTC.
Time now 2020-Jan-26 08:34 UTC

Location: S 37°40' E 175°16'.
View on Google Maps.

See reports from other nearby stations

  
Tides and Currents Weather Stations Pressure Air Temp Water Temp Dewpoint Dewpoint Depression Visibility Wind Speed Wind Dir Waves Ship Positions
date/time (UTC)wind fromknots sea level pressurealtimeterstation pressurevisibilityair tempwater tempwave heightnotes
2020-Jan-26 07:59 262 8 gusting 10 20.0
2020-Jan-26 07:49 261 6 gusting 10 20.6
2020-Jan-26 07:44 260 7 gusting 10 20.6
2020-Jan-26 07:39 252 7 gusting 11 21.1
2020-Jan-26 07:34 261 8 gusting 10 21.1
2020-Jan-26 07:24 269 8 gusting 10 21.7
2020-Jan-26 07:09 274 9 gusting 11 22.2
2020-Jan-26 06:59 278 10 gusting 12 22.8
2020-Jan-26 06:54 277 10 gusting 12 23.3
2020-Jan-26 06:49 274 10 gusting 12 23.3
2020-Jan-26 06:44 269 9 gusting 13 23.9
2020-Jan-26 06:29 270 11 gusting 13 24.4
2020-Jan-26 06:19 276 10 gusting 12 25.0
2020-Jan-26 06:14 269 8 gusting 12 25.0
2020-Jan-26 05:54 282 11 gusting 13 25.6
2020-Jan-26 05:44 288 10 gusting 13 26.1
2020-Jan-26 05:39 283 7 gusting 13 26.1
2020-Jan-26 05:29 257 11 gusting 13 26.1
2020-Jan-26 05:04 264 14 gusting 17 26.7
2020-Jan-26 04:59 252 12 gusting 17 27.2
2020-Jan-26 04:54 261 12 gusting 15 27.2
2020-Jan-26 04:44 262 11 gusting 14 27.2
2020-Jan-26 04:39 252 12 gusting 17 27.2
2020-Jan-26 04:34 272 12 gusting 17 27.2
2020-Jan-26 04:14 238 13 gusting 18 28.3
2020-Jan-26 04:09 261 11 gusting 15 28.3
2020-Jan-26 03:54 250 10 gusting 13 28.3
2020-Jan-26 03:44 252 11 gusting 13 28.9
2020-Jan-26 03:39 238 12 gusting 14 28.9
2020-Jan-26 03:34 247 12 gusting 15 28.9
2020-Jan-26 03:29 270 12 gusting 14 28.9
2020-Jan-26 03:24 235 11 gusting 15 28.9
2020-Jan-26 03:19 233 11 gusting 14 29.4
2020-Jan-26 03:14 249 10 gusting 14 29.4
2020-Jan-26 03:09 252 8 gusting 13 29.4
2020-Jan-26 03:04 249 11 gusting 17 29.4
2020-Jan-26 02:54 262 10 gusting 13 29.4
2020-Jan-26 02:44 261 13 gusting 17 29.4
2020-Jan-26 02:39 262 13 gusting 17 29.4
2020-Jan-26 02:34 256 12 gusting 15 29.4
2020-Jan-26 02:24 279 11 gusting 13 30.0
2020-Jan-26 02:19 260 13 gusting 17 30.0
2020-Jan-26 02:09 254 10 gusting 15 30.0
2020-Jan-26 02:04 256 10 gusting 14 30.0
2020-Jan-26 01:54 229 8 gusting 13 30.0
2020-Jan-26 01:49 209 10 gusting 13 30.0
2020-Jan-26 01:39 310 4 gusting 6 30.6
2020-Jan-26 01:34 291 7 gusting 12 30.0
2020-Jan-26 01:29 310 6 gusting 11 30.0
2020-Jan-26 01:19 237 3 gusting 7 30.0
2020-Jan-26 01:14 285 7 gusting 12 30.0
2020-Jan-26 01:09 309 6 gusting 7 30.0
2020-Jan-26 01:04 352 4 gusting 8 30.0
2020-Jan-26 00:59 021 6 gusting 12 29.4
2020-Jan-26 00:54 289 5 gusting 8 29.4
2020-Jan-26 00:49 300 6 gusting 11 29.4
2020-Jan-26 00:44 336 4 gusting 6 30.0
2020-Jan-26 00:34 248 1 gusting 6 29.4
2020-Jan-26 00:29 292 2 gusting 5 29.4
2020-Jan-26 00:19 276 3 gusting 10 28.9
2020-Jan-26 00:14 303 4 gusting 7 29.4
2020-Jan-26 00:09 160 2 gusting 5 29.4
2020-Jan-26 00:04 227 4 gusting 6 28.9
2020-Jan-25 23:59 271 4 gusting 6 28.3
2020-Jan-25 23:54 002 3 gusting 6 28.3
2020-Jan-25 23:49 060 3 gusting 6 27.8
2020-Jan-25 23:44 351 1 gusting 8 27.8
2020-Jan-25 23:39 328 5 gusting 10 27.2
2020-Jan-25 23:29 291 2 gusting 6 28.3
2020-Jan-25 23:24 011 2 gusting 4 28.3
2020-Jan-25 23:19 224 2 gusting 4 27.8
2020-Jan-25 23:14 188 4 gusting 6 27.2
2020-Jan-25 22:59 319 1 gusting 2 26.7
2020-Jan-25 22:54 259 2 gusting 4 26.7
2020-Jan-25 22:49 262 4 gusting 6 26.1
2020-Jan-25 22:44 197 4 gusting 6 26.1
2020-Jan-25 22:39 211 1 gusting 2 26.1
2020-Jan-25 22:34 249 2 gusting 6 26.1
2020-Jan-25 22:29 303 1 gusting 2 26.1
2020-Jan-25 22:14 271 4 gusting 7 25.0
2020-Jan-25 22:09 271 4 gusting 6 24.4
2020-Jan-25 22:04 266 5 gusting 7 24.4
2020-Jan-25 21:59 197 1 gusting 6 25.0
2020-Jan-25 21:54 181 5 gusting 7 25.0
2020-Jan-25 21:34 199 5 gusting 8 23.9
2020-Jan-25 21:24 203 3 gusting 7 23.3
2020-Jan-25 21:19 252 5 gusting 8 22.8
2020-Jan-25 21:14 242 1 gusting 8 22.8
2020-Jan-25 21:04 273 2 gusting 6 22.8
2020-Jan-25 20:59 252 5 gusting 6 22.8
2020-Jan-25 20:54 198 2 gusting 4 22.2
2020-Jan-25 20:44 311 4 gusting 5 21.7
2020-Jan-25 20:39 272 1 gusting 2 21.7
2020-Jan-25 20:34 216 2 gusting 5 21.1
2020-Jan-25 20:29 269 4 gusting 5 21.1
2020-Jan-25 20:24 265 2 gusting 5 21.1
2020-Jan-25 20:19 222 4 gusting 7 21.1
2020-Jan-25 20:14 264 4 gusting 6 21.1
2020-Jan-25 20:09 193 1 gusting 2 21.1
2020-Jan-25 20:04 288 0 gusting 1 21.1
2020-Jan-25 19:54 310 20.0
2020-Jan-25 19:34 321 0 gusting 2 18.3
2020-Jan-25 19:29 314 1 gusting 2 18.3
2020-Jan-25 19:24 309 1 gusting 2 17.8
2020-Jan-25 19:19 292 0 gusting 2 17.8
2020-Jan-25 19:14 302 0 gusting 2 17.8
2020-Jan-25 19:09 315 0 gusting 1 17.2
2020-Jan-25 18:59 054 0 gusting 1 16.7
2020-Jan-25 18:54 055 0 gusting 1 16.7
2020-Jan-25 18:49 055 0 gusting 1 16.1
2020-Jan-25 18:44 056 0 gusting 1 15.6
2020-Jan-25 18:34 098 0 gusting 1 15.0
2020-Jan-25 18:29 101 14.4
2020-Jan-25 18:24 101 13.9
2020-Jan-25 18:19 101 13.9
2020-Jan-25 18:14 101 0 gusting 1 13.9
2020-Jan-25 18:04 094 2 gusting 2 13.9
2020-Jan-25 17:59 104 1 gusting 2 13.3
2020-Jan-25 17:54 106 0 gusting 1 12.8
2020-Jan-25 17:44 143 0 gusting 0 13.3
2020-Jan-25 17:39 143 13.3
2020-Jan-25 17:34 143 0 gusting 0 13.3
2020-Jan-25 17:29 142 0 gusting 1 12.8
2020-Jan-25 17:24 056 0 gusting 1 12.8
2020-Jan-25 17:14 343 0 gusting 1 12.8
2020-Jan-25 17:09 343 13.3
2020-Jan-25 17:04 343 13.3
2020-Jan-25 16:59 343 0 gusting 0 13.3
2020-Jan-25 16:54 343 13.3
2020-Jan-25 16:49 343 0 gusting 1 13.3
2020-Jan-25 16:44 343 13.3
2020-Jan-25 16:39 343 0 gusting 0 13.9
2020-Jan-25 16:34 343 0 gusting 1 13.9
2020-Jan-25 16:29 343 0 gusting 1 13.9
2020-Jan-25 16:24 329 0 gusting 1 13.3
2020-Jan-25 16:19 305 0 gusting 1 13.9
2020-Jan-25 16:04 305 0 gusting 1 13.9
2020-Jan-25 15:59 305 0 gusting 1 13.9
2020-Jan-25 15:54 305 0 gusting 1 14.4
2020-Jan-25 15:49 305 1 gusting 2 14.4
2020-Jan-25 15:44 305 0 gusting 1 14.4
2020-Jan-25 15:39 305 1 gusting 1 14.4
2020-Jan-25 15:34 305 0 gusting 1 14.4
2020-Jan-25 15:29 305 1 gusting 1 14.4
2020-Jan-25 15:14 261 1 gusting 2 14.4
2020-Jan-25 15:04 005 1 gusting 2 15.0
2020-Jan-25 14:59 012 1 gusting 2 15.0
2020-Jan-25 14:54 018 1 gusting 1 15.0
2020-Jan-25 14:49 018 0 gusting 1 15.0
2020-Jan-25 14:39 018 0 gusting 1 15.0
2020-Jan-25 14:34 018 0 gusting 1 15.0
2020-Jan-25 14:24 018 0 gusting 1 15.0
2020-Jan-25 14:19 018 0 gusting 1 15.0
2020-Jan-25 14:14 018 1 gusting 2 15.6
2020-Jan-25 14:09 018 1 gusting 2 15.6
2020-Jan-25 14:04 018 2 gusting 2 15.6
2020-Jan-25 13:59 024 2 gusting 2 15.6
2020-Jan-25 13:54 035 1 gusting 2 15.6
2020-Jan-25 13:49 041 2 gusting 4 15.6
2020-Jan-25 13:44 041 4 gusting 4 15.6
2020-Jan-25 13:39 029 2 gusting 2 16.1
2020-Jan-25 13:34 350 1 gusting 1 16.1
2020-Jan-25 13:29 269 0 gusting 1 16.1
2020-Jan-25 13:19 260 0 gusting 1 15.6
2020-Jan-25 13:04 253 0 gusting 1 16.1
2020-Jan-25 12:59 253 1 gusting 2 16.1
2020-Jan-25 12:49 261 0 gusting 2 16.1
2020-Jan-25 12:44 261 2 gusting 2 16.1
2020-Jan-25 12:39 259 2 gusting 4 16.1
2020-Jan-25 12:34 262 2 gusting 2 16.7
2020-Jan-25 12:24 279 1 gusting 2 17.2
2020-Jan-25 12:14 236 17.2
2020-Jan-25 12:09 236 0 gusting 2 17.2
2020-Jan-25 11:54 225 3 gusting 5 18.3
2020-Jan-25 11:49 224 2 gusting 5 18.3
2020-Jan-25 11:44 227 4 gusting 5 18.3
2020-Jan-25 11:39 227 5 gusting 5 18.3
2020-Jan-25 11:34 225 5 gusting 7 18.3
2020-Jan-25 11:24 223 5 gusting 8 18.3
2020-Jan-25 11:09 222 4 gusting 6 18.3
2020-Jan-25 11:04 225 4 gusting 6 18.3
2020-Jan-25 10:49 239 4 gusting 5 18.9
2020-Jan-25 10:39 244 5 gusting 7 18.9
2020-Jan-25 10:29 252 4 gusting 6 18.9
2020-Jan-25 10:19 261 4 gusting 5 18.9
2020-Jan-25 10:14 256 5 gusting 6 18.9
2020-Jan-25 10:09 258 4 gusting 7 18.9
2020-Jan-25 10:04 255 4 gusting 6 18.9
2020-Jan-25 09:59 259 4 gusting 6 18.9
2020-Jan-25 09:44 253 5 gusting 8 18.9
2020-Jan-25 09:39 261 6 gusting 10 18.9
2020-Jan-25 09:34 254 6 gusting 8 18.9
2020-Jan-25 09:24 259 6 gusting 10 19.4
2020-Jan-25 09:09 267 5 gusting 7 19.4
2020-Jan-25 09:04 267 6 gusting 7 19.4
2020-Jan-25 08:59 267 6 gusting 8 19.4
2020-Jan-25 08:54 262 6 gusting 10 19.4
2020-Jan-25 08:49 265 6 gusting 8 19.4
2020-Jan-25 08:44 262 7 gusting 10 20.0
2020-Jan-25 08:39 260 8 gusting 11 20.0
2020-Jan-25 08:34 249 8 gusting 12 20.0
2020-Jan-25 08:29 253 8 gusting 12 20.0
2020-Jan-25 08:24 248 5 gusting 10 19.4
2020-Jan-25 08:19 260 5 gusting 8 20.0
2020-Jan-25 08:14 251 6 gusting 11 20.0
2020-Jan-25 08:04 248 6 gusting 10 20.0
2020-Jan-25 07:54 241 8 gusting 12 20.0
2020-Jan-25 07:49 241 9 gusting 13 20.0
2020-Jan-25 07:44 242 11 gusting 14 20.0
2020-Jan-25 07:34 243 11 gusting 13 20.6
2020-Jan-25 07:29 250 13 gusting 18 20.6
2020-Jan-25 07:24 245 12 gusting 15 20.6
2020-Jan-25 07:19 241 15 gusting 19 20.6
2020-Jan-25 07:09 247 17 gusting 21 21.1
2020-Jan-25 07:04 246 15 gusting 20 21.7
2020-Jan-25 06:59 251 14 gusting 19 21.7
2020-Jan-25 06:49 235 13 gusting 17 22.2
2020-Jan-25 06:44 235 14 gusting 21 22.2
2020-Jan-25 06:39 237 15 gusting 19 22.2
2020-Jan-25 06:29 239 18 gusting 20 22.8
2020-Jan-25 06:24 242 15 gusting 19 23.3
2020-Jan-25 06:19 233 14 gusting 19 23.3
2020-Jan-25 06:04 234 17 gusting 21 23.9
2020-Jan-25 05:59 234 14 gusting 19 24.4
2020-Jan-25 05:54 233 15 gusting 22 24.4
2020-Jan-25 05:39 240 15 gusting 20 25.0
2020-Jan-25 05:34 249 15 gusting 19 25.0
2020-Jan-25 05:29 244 15 gusting 19 25.6
2020-Jan-25 05:24 253 12 gusting 19 25.6
2020-Jan-25 05:14 250 13 gusting 18 26.1
2020-Jan-25 04:59 246 12 gusting 18 26.7
2020-Jan-25 04:54 238 15 gusting 19 26.7
2020-Jan-25 04:49 261 14 gusting 20 26.7
2020-Jan-25 04:44 236 13 gusting 17 27.2
2020-Jan-25 04:39 237 13 gusting 17 27.2
2020-Jan-25 04:34 238 11 gusting 17 27.2
2020-Jan-25 04:24 248 14 gusting 17 27.8
2020-Jan-25 04:19 223 13 gusting 17 27.2
2020-Jan-25 04:14 240 13 gusting 20 27.2
2020-Jan-25 04:09 260 13 gusting 18 27.2
2020-Jan-25 04:04 252 14 gusting 17 27.8
2020-Jan-25 03:59 253 12 gusting 17 27.2
2020-Jan-25 03:54 242 15 gusting 19 27.8
2020-Jan-25 03:39 255 13 gusting 17 27.8
2020-Jan-25 03:34 261 13 gusting 17 28.3
2020-Jan-25 03:29 245 12 gusting 18 28.3
2020-Jan-25 03:24 253 10 gusting 15 27.8
2020-Jan-25 03:09 260 13 gusting 17 28.3
2020-Jan-25 02:59 250 12 gusting 19 27.8
2020-Jan-25 02:49 244 11 gusting 17 28.3
2020-Jan-25 02:44 261 14 gusting 17 27.8
2020-Jan-25 02:34 260 6 gusting 17 28.3
2020-Jan-25 02:29 260 8 gusting 12 27.8
2020-Jan-25 02:24 230 11 gusting 17 27.8
2020-Jan-25 02:19 268 8 gusting 14 27.8
2020-Jan-25 02:09 264 12 gusting 17 27.8
2020-Jan-25 02:04 289 10 gusting 15 27.8
2020-Jan-25 01:59 269 8 gusting 10 27.2
2020-Jan-25 01:44 286 7 gusting 12 27.2
2020-Jan-25 01:39 282 4 gusting 11 27.2
2020-Jan-25 01:34 272 7 gusting 14 26.7
2020-Jan-25 01:24 248 12 gusting 17 26.7
2020-Jan-25 01:19 261 12 gusting 14 26.7
2020-Jan-25 01:09 247 9 gusting 13 26.7
2020-Jan-25 00:59 257 10 gusting 13 26.7
2020-Jan-25 00:39 219 11 gusting 13 26.7
2020-Jan-25 00:34 226 6 gusting 12 26.7
2020-Jan-25 00:29 254 8 gusting 13 26.7
2020-Jan-25 00:14 181 8 gusting 12 27.2
2020-Jan-25 00:04 261 8 gusting 12 26.7
2020-Jan-24 23:49 284 7 gusting 13 25.6
2020-Jan-24 23:39 251 2 gusting 7 25.6
2020-Jan-24 23:29 231 6 gusting 10 25.6
2020-Jan-24 23:24 244 7 gusting 11 25.6
2020-Jan-24 23:19 250 6 gusting 10 25.0
2020-Jan-24 23:14 257 4 gusting 8 24.4
2020-Jan-24 23:09 268 4 gusting 7 24.4
2020-Jan-24 23:04 197 6 gusting 10 25.0
2020-Jan-24 22:54 281 2 gusting 7 24.4
2020-Jan-24 22:49 303 5 gusting 8 24.4
2020-Jan-24 22:39 302 3 gusting 8 23.9
2020-Jan-24 22:34 290 5 gusting 6 23.9
2020-Jan-24 22:29 306 2 gusting 6 23.9
2020-Jan-24 22:24 224 3 gusting 7 23.3
2020-Jan-24 22:14 244 5 gusting 7 22.8
2020-Jan-24 22:09 211 1 gusting 2 22.2
2020-Jan-24 22:04 251 2 gusting 5 22.2
2020-Jan-24 21:59 241 5 gusting 7 22.2
2020-Jan-24 21:54 246 2 gusting 6 23.3
2020-Jan-24 21:49 232 1 gusting 2 22.8
2020-Jan-24 21:44 141 0 gusting 2 21.7
2020-Jan-24 21:39 263 3 gusting 7 21.1
2020-Jan-24 21:34 244 6 gusting 10 21.7
2020-Jan-24 21:24 299 0 gusting 1 21.1
2020-Jan-24 21:19 253 2 gusting 5 21.7
2020-Jan-24 21:14 264 4 gusting 6 22.2
2020-Jan-24 21:09 192 4 gusting 7 22.2
2020-Jan-24 20:59 208 2 gusting 7 20.6
2020-Jan-24 20:54 275 4 gusting 7 20.6
2020-Jan-24 20:44 223 3 gusting 5 20.0
2020-Jan-24 20:39 245 1 gusting 5 20.0
2020-Jan-24 20:34 264 2 gusting 5 20.0
2020-Jan-24 20:29 260 2 gusting 4 19.4
2020-Jan-24 20:24 259 2 gusting 4 19.4
2020-Jan-24 20:14 192 2 gusting 4 18.9
2020-Jan-24 20:09 130 1 gusting 2 18.3
2020-Jan-24 19:59 172 0 gusting 1 17.8
2020-Jan-24 19:49 082 1 gusting 2 17.2
2020-Jan-24 19:44 125 0 gusting 1 17.2
2020-Jan-24 19:39 151 0 gusting 2 17.2
2020-Jan-24 19:34 214 1 gusting 2 16.7
2020-Jan-24 19:24 227 0 gusting 0 16.1
2020-Jan-24 19:04 225 1 gusting 2 13.9
2020-Jan-24 18:59 223 1 gusting 2 13.3
2020-Jan-24 18:49 252 0 gusting 1 12.8
2020-Jan-24 18:44 252 0 gusting 1 12.8
2020-Jan-24 18:39 285 0 gusting 1 12.2
2020-Jan-24 18:34 037 0 gusting 0 11.7
2020-Jan-24 18:29 037 0 gusting 0 11.7
2020-Jan-24 18:19 037 0 gusting 0 11.1
2020-Jan-24 18:14 037 11.1
2020-Jan-24 17:59 044 2 gusting 2 10.6
2020-Jan-24 17:54 063 2 gusting 2 10.6
2020-Jan-24 17:49 084 2 gusting 2 10.0
2020-Jan-24 17:44 087 1 gusting 2 10.0
2020-Jan-24 17:24 111 0 gusting 0 10.0
2020-Jan-24 17:19 111 0 gusting 1 10.0
2020-Jan-24 17:14 111 0 gusting 1 10.6
2020-Jan-24 17:09 113 0 gusting 1 10.6
2020-Jan-24 16:54 116 0 gusting 1 10.0
2020-Jan-24 16:49 116 0 gusting 1 10.0
2020-Jan-24 16:44 249 0 gusting 1 10.0
2020-Jan-24 16:34 249 10.0
2020-Jan-24 16:29 249 0 gusting 1 10.0
2020-Jan-24 16:24 249 0 gusting 1 10.6
2020-Jan-24 16:19 249 0 gusting 1 10.0
2020-Jan-24 16:09 249 0 gusting 1 10.0
2020-Jan-24 16:04 249 10.0
2020-Jan-24 15:59 249 0 gusting 1 10.6
2020-Jan-24 15:54 249 1 gusting 2 10.6
2020-Jan-24 15:44 233 1 gusting 2 11.1
2020-Jan-24 15:39 233 1 gusting 2 11.1
2020-Jan-24 15:34 233 0 gusting 1 11.7
2020-Jan-24 15:24 232 1 gusting 2 11.1
2020-Jan-24 15:19 269 1 gusting 2 11.1
2020-Jan-24 15:14 284 1 gusting 2 11.7
2020-Jan-24 15:09 287 0 gusting 2 11.7
2020-Jan-24 14:59 287 2 gusting 2 11.7
2020-Jan-24 14:54 281 2 gusting 2 11.7
2020-Jan-24 14:49 275 2 gusting 2 11.7
2020-Jan-24 14:44 270 1 gusting 2 11.7
2020-Jan-24 14:39 279 1 gusting 2 11.7
2020-Jan-24 14:29 297 2 gusting 2 11.7
2020-Jan-24 14:24 307 2 gusting 2 11.7
2020-Jan-24 14:19 307 1 gusting 2 11.7
2020-Jan-24 14:14 307 1 gusting 2 11.7
2020-Jan-24 14:09 004 0 gusting 2 11.7
2020-Jan-24 14:04 009 1 gusting 2 11.7
2020-Jan-24 13:59 031 1 gusting 2 12.2
2020-Jan-24 13:49 045 2 gusting 2 13.3
2020-Jan-24 13:44 051 2 gusting 2 13.3
2020-Jan-24 13:34 354 1 gusting 2 12.8
2020-Jan-24 13:29 254 0 gusting 0 12.8
2020-Jan-24 13:24 254 13.9
2020-Jan-24 13:19 254 0 gusting 1 13.9
2020-Jan-24 13:14 254 0 gusting 1 13.9
2020-Jan-24 13:09 254 13.9
2020-Jan-24 12:59 254 0 gusting 1 13.9
2020-Jan-24 12:54 254 0 gusting 1 13.9
2020-Jan-24 12:49 254 0 gusting 0 13.9
2020-Jan-24 12:44 254 14.4
2020-Jan-24 12:39 254 14.4
2020-Jan-24 12:34 254 0 gusting 1 14.4
2020-Jan-24 12:19 254 1 gusting 2 15.0
2020-Jan-24 12:14 253 1 gusting 2 15.0
2020-Jan-24 12:09 251 2 gusting 2 15.0
2020-Jan-24 12:04 263 2 gusting 4 15.6
2020-Jan-24 11:59 263 4 gusting 4 15.0
2020-Jan-24 11:54 265 4 gusting 5 15.0
2020-Jan-24 11:44 263 4 gusting 5 14.4
2020-Jan-24 11:39 268 4 gusting 5 15.0
2020-Jan-24 11:29 290 2 gusting 2 15.0
2020-Jan-24 11:24 302 2 gusting 4 15.0
2020-Jan-24 11:19 309 3 gusting 4 15.0
2020-Jan-24 11:14 326 2 gusting 2 15.0
2020-Jan-24 11:04 326 3 gusting 4 15.6
2020-Jan-24 10:59 306 3 gusting 4 16.1
2020-Jan-24 10:54 287 4 gusting 5 16.1
2020-Jan-24 10:44 298 5 gusting 6 16.1
2020-Jan-24 10:34 302 5 gusting 6 16.1
2020-Jan-24 10:24 318 5 gusting 6 16.1
2020-Jan-24 10:19 321 5 gusting 6 16.1
2020-Jan-24 10:14 318 5 gusting 6 16.1
2020-Jan-24 10:04 316 4 gusting 5 16.1
2020-Jan-24 09:59 324 4 gusting 5 16.7
2020-Jan-24 09:54 325 4 gusting 5 16.7
2020-Jan-24 09:49 326 4 gusting 5 16.7
2020-Jan-24 09:39 320 5 gusting 5 16.7
2020-Jan-24 09:34 311 4 gusting 5 17.2
2020-Jan-24 09:24 307 4 gusting 5 17.8
2020-Jan-24 09:14 293 5 gusting 7 17.8
2020-Jan-24 09:09 298 5 gusting 6 17.8
2020-Jan-24 09:04 297 6 gusting 6 17.8
2020-Jan-24 08:49 286 5 gusting 6 18.3
2020-Jan-24 08:44 290 5 gusting 6 18.3
2020-Jan-24 08:39 295 5 gusting 6 18.3
2020-Jan-24 08:29 300 5 gusting 6 18.9
2020-Jan-24 08:24 292 5 gusting 7 18.9
2020-Jan-24 08:14 281 7 gusting 10 19.4
2020-Jan-24 08:09 279 7 gusting 10 19.4